Terminal Aerodrome Forecast
Issued by NWS

Home | Current Version | Previous Version | Text Only | Print | Product List | Glossary On
Versions: 1 2 3 4 5 6 7 8 9 10 11 12 13 14 15 16 17 18 19 20 21 22
000
FTUS41 KPBZ 300900 AAB
TAFAGC
TAF AMD
KAGC 300924Z 3009/3106 24012G24KT P6SM -DZ OVC015
     FM301000 25008G16KT P6SM BKN025
     FM301300 27012G22KT P6SM BKN035
     FM310000 26005KT P6SM BKN050=

USA.gov is the U.S. government's official web portal to all federal, state and local government web resources and services.